Date,TemperatureHighF,TemperatureAvgF,TemperatureLowF,DewpointHighF,DewpointAvgF,DewpointLowF,HumidityHigh,HumidityAvg,HumidityLow,PressureMaxIn,PressureMinIn,WindSpeedMaxMPH,WindSpeedAvgMPH,GustSpeedMaxMPH,PrecipitationSumIn
2013-7-4,67.9,67.2,66.7,67.0,66.3,65.8,97,97,97,30.30,30.26,2,0,3,0.50
2013-7-5,81.3,73.2,70.7,74.5,62.3,56.7,81,69,54,30.25,30.17,1,0,1,0.01
2013-7-6,87.8,77.5,70.3,74.5,68.7,59.0,95,75,54,30.24,30.10,4,1,9,0.22
2013-7-7,87.3,76.7,70.6,74.7,70.7,68.0,96,83,58,30.18,30.07,7,1,9,0.02
2013-7-8,91.6,77.6,69.3,73.9,69.8,64.0,97,79,45,30.19,30.08,7,1,7,0.62
2013-7-9,92.7,78.0,67.4,75.2,70.1,66.5,98,79,46,30.16,30.04,8,1,9,0.15
2013-7-10,88.2,72.7,68.3,77.1,70.1,67.4,97,92,66,30.14,29.96,8,0,8,0.02
2013-7-11,83.3,74.7,68.3,74.4,70.6,67.2,97,88,68,29.98,29.87,6,0,6,0.00
2013-7-12,84.7,72.8,65.7,72.8,68.3,62.6,97,87,63,30.05,29.89,9,1,9,0.04
2013-7-13,79.5,70.7,66.0,72.3,67.6,64.8,97,90,73,30.14,30.03,9,1,9,0.20
2013-7-14,86.5,75.4,70.0,74.8,70.8,68.8,97,87,60,30.30,30.11,6,1,15,0.75
2013-7-15,90.8,76.9,67.3,73.0,69.1,65.8,98,79,48,30.34,30.26,8,0,8,0.01
2013-7-16,94.5,78.1,65.6,72.7,67.8,60.0,98,75,34,30.33,30.22,6,0,6,0.00
2013-7-17,92.5,75.4,68.2,75.4,69.7,66.7,97,84,51,30.27,30.14,14,1,14,0.36
2013-7-18,92.0,77.3,66.2,76.2,70.4,65.6,98,81,50,30.20,30.07,6,0,6,0.01
2013-7-19,93.2,79.6,67.9,74.7,71.0,67.0,98,78,47,30.12,29.98,7,0,7,0.00
2013-7-20,90.0,74.6,68.6,76.1,70.8,67.7,97,89,59,30.03,29.94,13,0,13,0.21
2013-7-21,89.2,72.8,66.9,76.4,70.0,66.3,98,92,60,30.02,29.94,17,0,17,0.46
2013-7-22,88.0,76.2,67.0,75.0,70.1,66.4,98,83,57,30.01,29.83,14,1,14,0.16
2013-7-23,89.8,76.8,66.9,71.3,68.4,64.4,98,77,47,29.88,29.77,15,2,15,0.00
2013-7-24,91.0,77.1,66.1,73.0,68.3,61.1,98,77,48,29.86,29.76,15,0,15,0.00
2013-7-25,87.7,74.8,65.3,71.0,67.4,64.4,98,79,51,30.04,29.86,7,1,7,0.00
2013-7-26,88.8,75.0,67.1,72.3,68.2,65.8,97,81,53,30.11,30.00,7,1,7,0.00
2013-7-27,81.0,72.1,68.1,72.8,68.7,66.3,97,90,73,30.03,29.91,13,1,13,2.00
2013-7-28,86.8,74.3,66.2,72.8,68.4,64.9,98,84,55,30.02,29.93,6,1,7,0.09
2013-7-29,87.8,73.4,59.8,68.2,64.3,59.1,98,76,41,30.19,30.02,6,0,6,0.00
2013-7-30,84.0,72.1,62.7,70.3,65.0,59.7,97,80,55,30.25,30.15,7,0,7,0.00
2013-7-31,72.3,69.7,67.5,69.7,68.2,65.9,97,95,89,30.18,30.00,7,0,7,0.28
2013-8-1,87.4,74.9,68.5,76.7,70.1,66.6,98,86,55,30.00,29.89,15,0,15,0.61
2013-8-2,89.0,75.4,64.6,71.8,67.7,62.7,98,79,51,30.04,29.94,7,0,7,0.00
2013-8-3,89.0,76.3,67.6,73.5,68.9,64.8,98,80,52,30.04,29.95,8,1,8,0.00
2013-8-4,87.3,73.7,65.2,71.0,64.9,59.2,95,77,42,30.05,29.95,4,0,7,0.00
2013-8-5,86.7,73.8,63.7,72.0,66.0,61.3,96,78,56,30.10,29.97,6,0,6,0.06
2013-8-6,83.5,73.3,68.4,73.3,68.9,65.8,97,87,68,30.06,29.97,6,0,6,0.01
2013-8-7,81.8,73.1,68.8,73.6,70.2,67.3,97,91,72,30.09,30.02,4,0,4,0.20
2013-8-8,87.8,76.9,69.1,75.8,71.7,68.5,98,85,61,30.07,29.99,8,0,8,0.01
2013-8-9,90.8,77.3,69.7,76.3,71.9,68.8,97,85,54,30.07,30.00,6,1,12,0.01
2013-8-10,92.0,75.6,70.2,75.2,71.3,68.3,98,88,48,30.14,30.05,11,1,11,0.31
2013-8-11,93.3,76.7,67.8,76.3,70.9,67.2,98,84,47,30.14,30.04,7,0,8,0.00
2013-8-12,91.7,77.6,68.0,75.0,71.2,67.1,97,82,54,30.08,29.96,12,1,12,0.00
2013-8-13,86.5,75.0,70.2,74.1,70.1,66.2,98,86,59,29.97,29.82,12,1,12,0.00
2013-8-14,82.6,73.5,65.2,68.7,64.7,61.4,94,76,51,30.10,29.89,7,0,7,0.00
2013-8-15,72.0,63.9,56.2,62.0,58.3,55.1,97,83,62,30.19,30.09,8,0,8,0.00
2013-8-16,76.7,64.3,56.3,61.7,58.6,55.7,98,83,55,30.21,30.12,7,1,7,0.00
2013-8-17,67.1,62.7,57.8,62.3,60.0,56.5,98,91,79,30.23,30.17,6,0,6,0.33
2013-8-18,79.3,68.6,62.7,71.1,65.6,61.8,98,91,71,30.25,30.15,5,0,5,0.17
2013-8-19,77.5,70.0,66.2,69.1,67.1,65.6,98,91,71,30.21,30.10,3,0,3,0.46
2013-8-20,84.5,71.2,63.4,72.0,67.5,62.8,98,89,66,30.22,30.13,5,0,5,0.00
2013-8-21,81.7,71.9,65.6,73.4,69.2,65.0,98,92,74,30.25,30.12,10,0,10,0.10
2013-8-22,91.2,77.0,66.2,72.6,69.0,65.6,98,79,48,30.17,30.01,8,1,8,0.00
2013-8-23,87.3,74.6,64.7,73.5,68.6,64.1,98,83,55,30.10,29.98,8,0,8,0.01
2013-8-24,81.9,70.5,58.7,66.3,60.2,55.6,97,73,44,30.33,30.10,11,1,11,0.00
2013-8-25,82.5,66.9,54.7,65.0,59.1,53.9,98,79,44,30.42,30.30,8,0,8,0.00
2013-8-26,87.3,69.8,55.3,69.1,61.7,54.5,98,79,44,30.36,30.13,6,0,6,0.00
2013-8-27,88.3,73.6,60.9,73.7,66.2,59.9,98,80,50,30.16,30.01,10,1,10,0.00
2013-8-28,91.0,77.3,65.8,75.4,69.6,64.5,97,79,51,30.04,29.92,7,0,7,0.00
2013-8-29,92.0,80.6,71.4,74.2,70.0,65.7,96,72,45,30.01,29.89,10,1,10,1.26
2013-8-30,86.8,75.8,70.6,73.3,70.4,67.6,97,84,62,30.06,29.94,6,0,6,0.01
2013-8-31,90.3,74.5,66.8,75.7,69.9,66.0,98,87,57,29.97,29.88,16,1,16,0.02
2013-9-1,90.5,72.9,66.8,76.1,69.3,65.5,98,90,58,29.93,29.78,25,1,25,0.33
2013-9-2,89.8,75.6,65.9,74.8,69.8,65.4,99,84,54,29.92,29.81,7,0,7,0.02
2013-9-3,86.7,74.6,66.2,69.0,66.5,62.7,98,79,46,30.00,29.82,9,1,9,0.00
2013-9-4,87.7,72.3,60.5,70.6,65.3,59.9,98,81,52,30.12,29.99,6,0,6,0.00
2013-9-5,87.7,72.4,61.5,69.1,63.7,55.0,98,78,38,30.14,30.06,6,0,6,0.00
2013-9-6,84.3,69.8,57.7,65.3,61.7,57.1,98,78,47,30.22,30.09,7,0,7,0.01
2013-9-7,85.8,69.9,57.4,68.2,63.2,56.8,98,81,50,30.16,30.00,8,1,8,0.00
2013-9-8,87.5,72.5,60.1,70.0,64.9,59.4,98,80,47,30.02,29.94,7,1,7,0.00
2013-9-9,86.5,73.5,63.5,71.9,67.3,62.9,98,83,54,30.17,30.02,8,0,8,0.00
2013-9-10,90.2,73.8,62.8,72.4,67.2,62.2,98,82,51,30.26,30.15,5,0,5,0.01
2013-9-11,90.5,74.2,63.8,73.2,68.5,63.2,98,84,54,30.23,30.09,5,0,5,0.00
2013-9-12,89.5,73.3,66.2,73.0,68.9,65.3,98,88,53,30.09,29.86,11,0,11,0.09
2013-9-13,80.8,70.4,57.0,66.1,59.0,51.3,96,70,39,29.94,29.81,18,2,18,0.00
2013-9-14,78.3,61.2,49.8,58.1,52.9,48.7,97,77,45,30.16,29.94,11,1,11,0.00
2013-9-15,80.3,64.1,51.3,64.8,58.2,50.5,98,83,54,30.26,30.14,8,0,8,0.00
2013-9-16,84.2,68.1,57.2,66.6,60.4,56.6,98,79,44,30.20,30.08,11,1,11,0.01
2013-9-17,71.4,64.9,57.6,61.1,56.5,53.8,94,75,57,30.33,30.20,10,1,10,0.00
2013-9-18,69.8,62.9,57.5,60.5,56.5,52.5,92,80,63,30.34,30.19,7,0,7,0.00
2013-9-19,81.1,68.6,61.4,67.2,62.6,59.2,94,82,59,30.22,30.10,5,0,5,0.00
2013-9-20,87.3,71.9,60.8,70.7,65.0,60.0,98,81,48,30.11,29.92,7,0,7,0.02
2013-9-21,72.5,66.7,62.6,68.7,64.9,61.9,98,94,82,29.94,29.72,6,0,11,0.85
2013-9-22,77.8,64.5,52.4,62.0,56.3,51.8,99,78,46,29.94,29.76,14,1,14,0.01
2013-9-23,76.4,61.8,52.6,60.7,55.7,51.9,98,82,56,30.10,29.94,10,0,10,0.00
2013-9-24,80.1,65.6,58.2,62.4,59.4,55.7,98,82,48,30.11,29.94,8,0,8,0.00
2013-9-25,64.3,61.3,58.2,62.4,60.0,57.5,98,95,92,29.97,29.90,5,0,5,0.22
2013-9-26,76.8,63.5,53.2,60.8,56.5,47.9,98,81,39,30.08,29.93,8,1,8,0.00
2013-9-27,78.1,61.9,48.7,59.6,54.4,48.2,99,79,48,30.21,30.08,8,0,8,0.00
2013-9-28,73.0,62.5,55.7,57.9,55.3,51.9,96,79,55,30.29,30.18,8,0,8,0.00
2013-9-29,75.7,62.4,53.8,58.9,55.3,51.5,96,79,53,30.22,30.06,6,0,6,0.00
2013-9-30,77.8,64.2,56.3,61.6,58.0,54.8,97,82,49,30.13,30.01,8,0,8,0.00
2013-10-1,82.6,65.4,53.2,63.9,58.2,52.7,98,81,43,30.18,30.05,4,0,9,0.00
2013-10-2,84.5,66.5,53.6,64.0,58.5,53.0,98,79,42,30.19,30.08,7,0,7,0.01
2013-10-3,85.2,67.7,57.2,65.8,60.6,56.6,98,81,43,30.16,30.07,8,0,8,0.00
2013-10-4,86.9,68.6,55.9,67.0,61.1,55.3,98,81,43,30.18,30.08,5,0,5,0.00
2013-10-5,87.7,69.9,57.4,67.3,62.4,56.7,98,80,45,30.16,30.04,7,0,7,0.01
2013-10-6,83.8,68.6,57.6,68.1,62.1,57.0,98,82,51,30.07,29.90,11,0,11,0.00
2013-10-7,73.5,64.4,51.5,67.0,60.3,50.3,98,87,66,30.05,29.82,11,1,11,1.49
2013-10-8,67.8,54.3,46.7,51.6,49.0,46.1,98,84,54,30.27,30.04,12,1,12,0.01
2013-10-9,72.7,54.8,41.8,49.2,44.7,38.1,98,75,29,30.30,30.16,10,1,0,0.00
2013-10-10,75.6,57.5,40.8,57.4,49.7,40.2,98,79,45,30.19,30.03,11,1,0,0.00
2013-10-11,78.5,63.7,52.3,58.4,53.9,50.7,97,74,40,30.05,29.94,12,1,0,0.01
2013-10-12,73.5,62.3,52.9,62.8,57.4,51.4,96,85,61,30.13,30.00,4,0,0,0.00
2013-10-13,76.2,65.8,61.1,64.6,61.5,59.8,97,87,65,30.24,30.13,7,0,0,0.03
2013-10-14,70.1,63.1,58.8,61.5,59.6,56.7,96,89,70,30.28,30.17,9,1,9,0.02
2013-10-15,72.4,61.1,53.4,59.0,55.8,52.2,97,84,58,30.25,30.08,11,1,3,0.00
2013-10-16,73.5,60.6,51.7,60.2,56.0,51.2,98,86,60,30.12,29.98,6,0,0,0.00
2013-10-17,72.0,62.7,58.4,65.3,60.7,57.3,98,93,77,30.00,29.85,10,0,0,0.12
2013-10-18,71.8,58.4,47.1,58.5,53.5,46.6,99,85,60,30.07,29.93,6,0,0,0.01
2013-10-19,64.3,57.1,47.9,59.4,55.0,47.1,98,93,79,30.00,29.86,5,0,0,0.02
2013-10-20,66.5,50.9,38.5,47.1,43.2,37.5,98,78,44,30.15,29.96,7,0,0,0.01
2013-10-21,69.6,50.6,37.1,53.2,45.8,36.5,98,86,51,30.21,30.04,8,0,0,0.00
2013-10-22,69.1,57.8,50.4,56.6,52.5,49.1,98,84,53,30.06,29.82,6,0,0,0.01
2013-10-23,60.8,50.1,37.3,52.0,38.7,29.2,98,68,38,30.08,29.77,29,4,0,0.00
2013-10-24,55.9,44.0,31.2,37.9,33.0,28.5,91,67,41,30.21,30.06,14,1,0,0.00
2013-10-25,49.7,38.4,28.3,35.7,29.4,25.4,95,73,41,30.44,30.21,14,1,14,0.00
2013-10-26,58.6,39.8,23.7,38.3,30.1,22.7,97,72,34,30.43,30.11,11,0,4,0.00
2013-10-27,70.5,54.3,38.9,49.2,43.6,37.1,94,70,43,30.17,30.06,9,1,9,0.00
2013-10-28,63.3,53.9,45.6,57.1,51.3,44.4,97,91,79,30.29,30.14,6,0,0,0.01
2013-10-29,65.8,54.8,48.0,53.0,51.0,47.4,98,88,61,30.32,30.27,4,0,0,0.00
2013-10-30,78.2,62.5,52.7,58.2,54.4,51.1,95,78,45,30.32,30.16,8,0,0,0.00
2013-10-31,68.4,60.4,52.0,61.8,55.7,51.1,98,86,62,30.20,29.88,12,0,0,0.00
2013-11-1,74.0,65.7,54.2,64.4,59.5,53.3,98,81,62,29.88,29.65,18,2,18,0.06
2013-11-2,66.0,53.9,40.9,54.5,41.5,34.5,98,65,36,30.02,29.74,22,2,13,0.00
2013-11-3,61.1,47.4,36.4,38.3,34.9,31.9,87,64,35,30.43,30.02,12,1,0,0.00
2013-11-4,58.1,42.2,28.9,36.5,30.9,27.2,97,69,33,30.59,30.43,9,1,0,0.00
2013-11-5,56.4,43.9,30.6,47.9,36.9,28.8,95,78,51,30.64,30.48,10,0,0,0.01
2013-11-6,64.8,53.0,45.7,53.5,50.0,44.9,98,90,66,30.49,30.18,7,0,0,0.04
2013-11-7,66.4,49.7,35.4,57.9,43.7,31.8,98,83,42,30.20,30.02,21,2,4,0.01
2013-11-8,57.2,42.8,29.6,32.3,25.4,15.4,87,55,21,30.37,30.19,13,1,13,0.00
2013-11-9,57.4,40.0,25.3,33.8,28.7,23.5,95,68,33,30.45,30.25,9,0,0,0.00
2013-11-10,68.5,51.4,31.9,39.3,31.9,25.4,94,53,22,30.29,30.17,22,4,0,0.00
2013-11-11,62.7,44.5,28.0,31.2,26.1,22.6,83,52,23,30.40,30.19,7,0,0,0.00
2013-11-12,60.4,42.9,29.0,38.0,26.3,13.0,78,53,31,30.51,30.10,23,5,23,0.00
2013-11-13,49.6,32.1,19.4,19.0,15.5,12.2,84,54,23,30.60,30.50,6,1,6,0.00
2013-11-14,61.2,37.5,20.0,25.6,19.7,16.2,89,56,18,30.54,30.37,7,0,4,0.00
2013-11-15,52.9,40.5,26.2,43.2,29.7,20.0,96,68,39,30.40,30.26,6,0,1,0.14
2013-11-16,56.0,50.0,44.3,52.0,48.2,43.2,97,94,85,30.34,30.24,5,0,0,0.01
2013-11-17,61.7,55.4,51.8,57.2,53.8,50.4,98,94,83,30.26,29.90,3,0,3,0.31
2013-11-18,68.7,58.9,45.1,59.1,42.6,26.6,99,59,25,30.05,29.85,20,3,3,0.00
2013-11-19,55.9,44.8,33.8,31.2,25.5,20.0,72,48,26,30.32,30.04,11,1,11,0.00
2013-11-20,50.9,39.5,29.8,31.3,28.6,26.2,88,66,42,30.53,30.31,10,1,9,0.00
2013-11-21,51.5,44.9,35.4,46.2,39.2,30.7,96,80,70,30.56,30.44,6,0,3,0.02
2013-11-22,62.5,53.9,47.1,57.2,51.7,46.0,97,93,82,30.47,30.16,6,1,0,0.04
2013-11-23,57.9,50.7,37.0,54.7,40.7,20.5,98,71,40,30.27,30.11,16,2,0,0.00
2013-11-24,39.5,31.0,22.7,23.1,9.1,1.8,60,41,22,30.58,30.27,25,4,25,0.00
2013-11-25,37.2,29.0,17.9,23.1,12.0,7.9,79,51,31,30.62,30.41,6,0,6,0.00
2013-11-26,40.4,34.9,30.5,39.8,33.1,22.1,98,93,66,30.41,29.70,9,0,0,2.17
2013-11-27,41.7,35.3,23.9,41.2,27.7,14.5,98,75,51,30.25,29.62,25,4,0,0.09
2013-11-28,46.4,30.3,18.5,22.6,18.6,14.7,88,64,33,30.54,30.25,9,1,8,0.00
2013-11-29,55.0,34.4,20.6,30.0,23.2,19.1,96,69,30,30.68,30.53,4,0,3,0.00
2013-11-30,45.5,31.8,22.3,25.8,23.0,20.4,94,72,42,30.73,30.45,10,1,0,0.00
2013-12-1,59.2,37.0,21.9,35.4,28.3,20.2,94,74,38,30.45,30.09,4,0,0,0.00
2013-12-2,58.1,41.9,26.5,38.8,33.3,25.3,97,74,44,30.09,29.86,7,1,0,0.00
2013-12-3,60.2,49.9,40.9,50.2,44.4,36.0,94,82,65,30.00,29.91,7,0,0,0.01
2013-12-4,57.1,53.8,50.8,54.5,52.4,49.7,98,95,90,30.10,29.98,4,0,0,0.00
2013-12-5,67.2,59.2,52.8,65.0,58.0,52.2,98,96,89,30.13,30.00,9,1,9,0.22
2013-12-6,73.6,69.2,59.0,65.4,63.3,57.5,96,82,73,30.04,29.93,24,5,24,0.55
2013-12-7,59.1,52.9,41.4,58.2,47.1,36.3,97,81,66,30.44,29.98,9,2,9,0.05
2013-12-8,41.4,35.5,32.9,37.8,34.0,31.6,96,94,87,30.46,30.31,8,1,8,0.13
2013-12-9,43.5,38.3,33.1,42.3,37.4,32.1,98,97,94,30.33,30.10,8,0,3,0.51
2013-12-10,50.7,41.3,29.2,47.5,34.1,18.7,98,78,47,30.36,29.96,26,3,26,0.20
2013-12-11,52.0,34.9,21.5,29.5,22.3,16.4,90,63,27,30.51,30.34,8,1,3,0.00
2013-12-12,44.2,35.3,24.8,23.3,14.2,0.5,69,44,16,30.47,30.35,20,3,20,0.00
2013-12-13,52.2,33.7,19.0,28.6,19.9,15.4,89,61,26,30.43,30.31,6,0,11,0.00
2013-12-14,37.3,36.1,34.4,36.4,32.9,27.7,97,88,72,30.34,29.85,7,1,7,0.76
2013-12-15,45.3,39.0,32.9,37.8,31.6,25.6,98,76,57,30.15,29.80,23,4,23,0.00
2013-12-16,60.1,43.3,30.8,31.8,28.7,25.9,83,60,31,30.22,30.11,9,1,9,0.00
2013-12-17,63.4,46.3,29.7,36.4,30.6,21.6,90,58,31,30.18,29.93,28,3,28,0.00
2013-12-18,51.3,39.2,27.9,22.4,15.9,7.3,69,41,17,30.34,30.11,22,4,22,0.00
2013-12-19,66.4,41.9,23.8,28.8,22.5,17.4,83,51,21,30.37,30.24,12,0,6,0.00
2013-12-20,64.7,46.9,32.0,44.7,34.8,26.3,86,65,33,30.28,30.15,8,1,8,0.00
2013-12-21,66.3,52.1,41.9,61.9,49.3,39.3,98,90,79,30.19,30.01,24,1,2,0.01
2013-12-22,67.6,61.5,57.3,63.7,59.5,56.6,98,93,85,30.08,29.97,22,2,22,2.23
2013-12-23,58.6,52.9,36.1,58.3,49.3,33.0,99,88,69,30.22,30.00,9,1,3,0.60
2013-12-24,40.1,32.7,22.9,34.0,24.0,15.7,94,72,45,30.51,30.21,21,2,0,0.00
2013-12-25,39.1,25.2,16.6,18.7,13.6,5.7,91,65,28,30.61,30.44,6,0,4,0.00
2013-12-26,53.9,33.0,18.1,27.0,20.8,14.7,92,65,31,30.45,30.31,11,1,4,0.00
2013-12-27,51.9,34.3,21.3,28.0,23.0,19.3,94,68,32,30.54,30.42,6,0,6,0.00
2013-12-28,49.2,35.5,21.9,39.5,29.5,20.1,96,81,47,30.49,30.21,5,0,2,0.23
2013-12-29,58.2,44.9,38.4,49.0,40.2,34.8,98,85,61,30.21,29.81,23,2,2,0.66
2013-12-30,51.8,45.4,40.7,39.8,37.2,34.7,89,73,61,30.17,30.00,11,1,11,0.00
2013-12-31,47.2,38.1,26.5,38.1,23.0,14.9,93,57,28,30.43,30.15,25,2,25,0.00
2014-1-1,49.2,35.0,24.0,29.8,25.8,19.1,90,71,43,30.43,30.21,9,0,9,0.00
2014-1-2,41.3,34.0,26.0,38.0,30.2,14.7,97,87,59,30.20,29.72,28,2,3,0.16